Flight Track Log - Related Links

Times and Time Zones

All times are in EDT time to prevent confusion due to time zone crossing. See the N677F flight status page for this flight to view local times or setup timezone preferences in your user account.

Time Position Orientation Groundspeed Altitude Reporting Facility
EDT Latitude Longitude Course Direction KTS MPH feet Rate Location/Type
Fri 05:04:21 AM 39.9000 -105.0833 49° Northeast 187 215 6,200  Level Denver TRACON
Fri 05:05:21 AM 39.9333 -105.0333 49° Northeast 261 300 8,200 2,100 Climbing Denver TRACON
Fri 05:06:21 AM 40.0000 -104.9833 30° Northeast 297 342 10,400 1,700 Climbing Denver TRACON
Fri 05:07:21 AM 40.1000 -104.9833 360° North 344 396 11,600 1,750 Climbing Denver TRACON
Fri 05:08:21 AM 40.2000 -104.9500 14° North 377 434 13,900 2,200 Climbing Denver TRACON
Fri 05:09:21 AM 40.3000 -104.9333 North 393 452 16,000 2,133 Climbing Denver TRACON
Fri 05:10:36 AM 40.4403 -104.9161 North 404 465 18,700 2,178 Climbing Denver Center
Fri 05:11:36 AM 40.5556 -104.8967 North 425 489 20,900 2,033 Climbing Denver Center
Fri 05:12:37 AM 40.6744 -104.8739 North 432 497 22,800 1,785 Climbing Denver Center
Fri 05:13:37 AM 40.7933 -104.8656 North 435 501 24,500 1,736 Climbing Denver Center
Fri 05:14:38 AM 40.9231 -104.8750 357° North 463 533 26,300 1,736 Climbing Denver Center
Fri 05:15:38 AM 41.0608 -104.8789 359° North 483 556 28,000 1,600 Climbing Denver Center
Fri 05:16:38 AM 41.2153 -104.8850 358° North 497 572 29,500 1,438 Climbing Denver Center
Fri 05:17:39 AM 41.3519 -104.8933 357° North 511 588 30,900 1,587 Climbing Denver Center
Fri 05:18:39 AM 41.4894 -104.9003 358° North 514 592 32,700 1,587 Climbing Denver Center
Fri 05:19:40 AM 41.6494 -104.9067 358° North 515 593 34,100 1,537 Climbing Denver Center
Fri 05:20:40 AM 41.7883 -104.9128 358° North 521 600 35,800 1,884 Climbing Denver Center
Fri 05:21:41 AM 41.9225 -104.9214 357° North 506 582 37,900 1,388 Climbing Denver Center
Fri 05:22:41 AM 42.0567 -104.9275 358° North 501 577 38,600 1,250 Climbing Denver Center
Fri 05:23:41 AM 42.2136 -104.9350 358° North 501 577 40,400 1,190 Climbing Denver Center
Fri 05:24:42 AM 42.3444 -104.9425 358° North 492 566 41,000 298 Climbing Denver Center
Fri 05:25:42 AM 42.4756 -104.9494 358° North 488 562 41,000  Level Denver Center
Fri 05:26:43 AM 42.6092 -104.9567 358° North 493 567 41,000  Level Denver Center
Fri 05:27:43 AM 42.7672 -104.9625 358° North 503 579 41,000  Level Denver Center
Fri 05:28:44 AM 42.9003 -104.9678 358° North 497 572 41,000  Level Denver Center
Fri 05:29:44 AM 43.0322 -104.9739 358° North 494 568 41,000  Level Denver Center
Fri 05:30:45 AM 43.1658 -104.9803 358° North 499 574 41,000  Level Denver Center
Fri 05:31:45 AM 43.3233 -104.9861 358° North 504 580 41,000  Level Denver Center
Fri 05:32:45 AM 43.4578 -104.9906 359° North 503 579 41,000  Level Denver Center
Fri 05:33:46 AM 43.5581 -105.0781 328° Northwest 473 544 41,000  Level Denver Center
Fri 05:34:46 AM 43.5575 -105.2544 270° West 419 482 41,000  Level Denver Center
Fri 05:35:47 AM 43.5500 -105.4008 266° West 406 467 41,000  Level Denver Center
Fri 05:36:47 AM 43.5419 -105.5489 266° West 405 466 41,000  Level Denver Center
Fri 05:37:48 AM 43.5319 -105.7219 266° West 407 468 41,000  Level Denver Center
Fri 05:38:48 AM 43.5281 -105.8714 268° West 409 471 41,000  Level Denver Center
Fri 05:39:49 AM 43.5325 -106.0236 272° West 416 479 41,000  Level Denver Center
Fri 05:40:49 AM 43.5389 -106.1997 273° West 414 476 41,000  Level Denver Center
Fri 05:41:50 AM 43.5417 -106.3503 272° West 412 474 41,000  Level Denver Center
Fri 05:42:50 AM 43.5469 -106.5000 273° West 412 474 41,000  Level Denver Center
Fri 05:43:50 AM 43.5508 -106.6544 272° West 420 483 41,000  Level Denver Center
Fri 05:44:51 AM 43.5547 -106.8328 272° West 417 480 41,000  Level Denver Center
Fri 05:45:51 AM 43.5589 -106.9950 272° West 410 472 41,000  Level Denver Center
Fri 05:46:52 AM 43.5617 -107.1458 272° West 412 474 41,000  Level Denver Center
Fri 05:47:37 AM 43.5639 -107.2728 271° West 413 475 41,000  Level Salt Center
Fri 05:48:37 AM 43.5656 -107.4222 271° West 409 471 41,000  Level Salt Center
Fri 05:49:37 AM 43.5547 -107.5672 264° West 399 459 41,000  Level Salt Center
Fri 05:50:37 AM 43.5564 -107.7181 271° West 410 472 41,000  Level Salt Center
Fri 05:51:38 AM 43.5667 -107.8975 275° West 417 480 41,000  Level Salt Center
Fri 05:52:38 AM 43.5756 -108.0531 275° West 422 486 41,000  Level Salt Center
Fri 05:53:38 AM 43.5786 -108.2111 272° West 428 493 41,000  Level Salt Center
Fri 05:54:38 AM 43.5817 -108.3628 272° West 416 479 41,000  Level Salt Center
Fri 05:55:39 AM 43.5828 -108.5344 271° West 404 465 41,000  Level Salt Center
Fri 05:56:39 AM 43.5842 -108.6850 271° West 408 470 41,000  Level Salt Center
Fri 05:57:39 AM 43.5853 -108.8394 271° West 417 480 41,000  Level Salt Center
Fri 05:58:40 AM 43.5861 -108.9936 270° West 418 481 41,000  Level Salt Center
Fri 05:59:40 AM 43.5872 -109.1772 271° West 427 491 41,000  Level Salt Center
Fri 06:00:40 AM 43.5875 -109.3258 270° West 409 471 41,000  Level Salt Center
Fri 06:01:41 AM 43.5886 -109.4689 271° West 393 452 41,000  Level Salt Center
Fri 06:02:41 AM 43.5869 -109.6197 269° West 382 440 41,000  Level Salt Center
Fri 06:03:41 AM 43.5878 -109.7589 271° West 381 438 41,000  Level Salt Center
Fri 06:04:42 AM 43.5864 -109.9292 269° West 394 453 41,000  Level Salt Center
Fri 06:05:42 AM 43.5869 -110.0750 270° West 399 459 41,000  Level Salt Center
Fri 06:06:42 AM 43.5864 -110.2167 270° West 387 445 41,000  Level Salt Center
Fri 06:07:42 AM 43.5853 -110.3842 270° West 393 452 41,000  Level Salt Center
Fri 06:08:43 AM 43.5839 -110.5350 269° West 407 468 41,000  Level Salt Center
Fri 06:09:43 AM 43.5833 -110.6875 270° West 415 478 41,000  Level Salt Center
Fri 06:10:43 AM 43.5819 -110.8442 269° West 424 488 41,000  Level Salt Center
Fri 06:11:44 AM 43.5811 -111.0264 270° West 424 488 41,000  Level Salt Center
Fri 06:12:44 AM 43.5794 -111.1794 269° West 419 482 41,000  Level Salt Center
Fri 06:13:44 AM 43.5747 -111.3342 268° West 420 483 41,000  Level Salt Center
Fri 06:14:44 AM 43.4856 -111.4058 210° Southwest 416 479 41,000  Level Salt Center
Fri 06:15:45 AM 43.3536 -111.3814 172° South 428 493 41,000  Level Salt Center
Fri 06:16:45 AM 43.2422 -111.3711 176° South 420 483 41,000  Level Salt Center
Fri 06:17:45 AM 43.1319 -111.3592 175° South 416 479 41,000  Level Salt Center
Fri 06:18:46 AM 43.0006 -111.3478 176° South 423 487 41,000  Level Salt Center
Fri 06:19:46 AM 42.8886 -111.3361 176° South 422 486 41,000  Level Salt Center
Fri 06:20:46 AM 42.7739 -111.3261 176° South 429 494 41,000  Level Salt Center
Fri 06:21:46 AM 42.6544 -111.3139 176° South 422 486 41,000  Level Salt Center
Fri 06:22:47 AM 42.5428 -111.3031 176° South 406 467 41,000  Level Salt Center
Fri 06:23:47 AM 42.4281 -111.2931 176° South 412 474 41,000  Level Salt Center
Fri 06:24:47 AM 42.3139 -111.2825 176° South 411 473 41,000  Level Salt Center
Fri 06:25:47 AM 42.2056 -111.2714 176° South 395 455 41,000  Level Salt Center
Fri 06:26:48 AM 42.0964 -111.2614 176° South 394 453 41,000  Level Salt Center
Fri 06:27:48 AM 41.9897 -111.2111 161° South 433 498 41,000  Level Salt Center
Fri 06:28:48 AM 41.9747 -111.0333 96° East 513 590 41,000  Level Salt Center
Fri 06:29:48 AM 41.9989 -110.8347 81° East 519 597 41,000  Level Salt Center
Fri 06:30:49 AM 42.0008 -110.6500 89° East 515 593 41,000  Level Salt Center
Fri 06:31:49 AM 42.0025 -110.4639 89° East 519 597 41,000  Level Salt Center
Fri 06:32:49 AM 42.0017 -110.2469 90° East 522 601 41,000  Level Salt Center
Fri 06:33:49 AM 42.0022 -110.0600 90° East 522 601 41,000  Level Salt Center
Fri 06:34:49 AM 41.9406 -109.9239 121° Southeast 463 533 41,000  Level Salt Center
Fri 06:35:50 AM 41.8156 -109.9197 179° South 404 465 41,000  Level Salt Center
Fri 06:36:50 AM 41.7072 -109.9311 184° South 408 470 41,000  Level Salt Center
Fri 06:37:50 AM 41.5992 -109.9431 185° South 409 471 41,000  Level Salt Center
Fri 06:38:50 AM 41.4925 -109.9528 184° South 404 465 41,000  Level Salt Center
Fri 06:39:51 AM 41.3689 -109.9661 185° South 401 461 41,000  Level Salt Center
Fri 06:40:51 AM 41.2606 -109.9769 184° South 407 468 41,000  Level Salt Center
Fri 06:41:51 AM 41.1528 -109.9864 184° South 407 468 41,000  Level Salt Center
Fri 06:42:51 AM 41.0272 -109.9539 169° South 419 482 41,000  Level Salt Center
Fri 06:43:52 AM 40.9289 -109.8689 147° Southeast 441 507 41,000  Level Salt Center
Fri 06:44:40 AM 40.8647 -109.7608 128° Southeast 467 537 41,000  Level Salt Center
Fri 06:45:40 AM 40.7828 -109.6086 125° Southeast 469 540 41,000  Level Salt Center
Fri 06:46:40 AM 40.7081 -109.4725 126° Southeast 476 548 41,000  Level Salt Center
Fri 06:47:40 AM 40.6336 -109.3392 126° Southeast 473 544 41,000  Level Salt Center
Fri 06:48:41 AM 40.5594 -109.2061 126° Southeast 470 541 41,000  Level Salt Center
Fri 06:49:41 AM 40.4719 -109.0497 126° Southeast 473 544 41,000  Level Salt Center
Fri 06:50:41 AM 40.3928 -108.9244 130° Southeast 468 539 41,000  Level Salt Center
Fri 06:51:29 AM 40.3311 -108.8136 126° Southeast 465 535 41,000  Level Denver Center
Fri 06:52:30 AM 40.3597 -108.6433 78° East 520 598 41,000  Level Denver Center
Fri 06:53:30 AM 40.4842 -108.5844 20° North 503 579 41,000  Level Denver Center
Fri 06:54:30 AM 40.6369 -108.5989 356° North 492 566 41,000  Level Denver Center
Fri 06:55:42 AM 40.7844 -108.6167 355° North 489 563 41,000  Level Denver Center
Fri 06:56:42 AM 40.9364 -108.6331 355° North 491 565 41,000  Level Salt Center
Fri 06:57:42 AM 41.0678 -108.6478 355° North 495 570 41,000  Level Salt Center
Fri 06:58:43 AM 41.1978 -108.6628 355° North 493 567 41,000  Level Salt Center
Fri 06:59:43 AM 41.3483 -108.6769 356° North 490 564 41,000  Level Salt Center
Fri 07:00:43 AM 41.4778 -108.6925 355° North 492 566 41,000  Level Salt Center
Fri 07:01:43 AM 41.6097 -108.7081 355° North 501 577 41,000  Level Salt Center
Fri 07:02:43 AM 41.7633 -108.7247 355° North 501 577 41,000  Level Salt Center
Fri 07:03:43 AM 41.8950 -108.7397 355° North 499 574 41,000  Level Salt Center
Fri 07:04:44 AM 42.0292 -108.7233 North 519 597 41,000  Level Salt Center
Fri 07:05:44 AM 42.0950 -108.5336 65° Northeast 519 597 41,000  Level Salt Center
Fri 07:06:44 AM 42.0914 -108.3483 91° East 516 594 41,000  Level Salt Center
Fri 07:07:44 AM 42.0878 -108.1664 91° East 510 587 41,000  Level Salt Center
Fri 07:08:44 AM 42.0825 -107.9828 92° East 513 590 41,000  Level Salt Center
Fri 07:09:45 AM 42.0794 -107.7719 91° East 504 580 41,000  Level Denver Center
Fri 07:10:45 AM 42.0733 -107.5917 93° East 504 580 41,000  Level Denver Center
Fri 07:11:46 AM 42.0656 -107.4147 93° East 496 571 41,000  Level Denver Center
Fri 07:12:46 AM 42.0561 -107.2397 94° East 491 565 41,000  Level Denver Center
Fri 07:13:46 AM 42.0497 -107.0369 92° East 486 559 41,000  Level Denver Center
Fri 07:14:46 AM 42.0425 -106.8633 93° East 488 562 41,000  Level Denver Center
Fri 07:15:46 AM 42.0378 -106.6900 92° East 486 559 41,000  Level Denver Center
Fri 07:16:46 AM 42.0308 -106.5000 93° East 486 559 41,000  Level Denver Center
Fri 07:17:47 AM 42.0253 -106.3244 92° East 491 565 41,000  Level Denver Center
Fri 07:18:47 AM 42.0256 -106.1217 90° East 487 560 41,000  Level Denver Center
Fri 07:19:47 AM 42.0258 -105.9419 90° East 499 574 41,000  Level Denver Center
Fri 07:20:47 AM 42.0258 -105.7572 90° East 514 592 41,000  Level Denver Center
Fri 07:21:47 AM 42.0256 -105.5803 90° East 499 574 41,000  Level Denver Center
Fri 07:22:47 AM 42.0228 -105.3769 91° East 490 564 41,000  Level Denver Center
Fri 07:23:47 AM 42.0225 -105.1978 90° East 499 574 41,000  Level Denver Center
Fri 07:24:48 AM 42.0194 -105.0189 91° East 501 577 41,000  Level Denver Center
Fri 07:25:48 AM 42.0100 -104.8122 93° East 500 575 41,000  Level Denver Center
Fri 07:26:48 AM 42.0142 -104.6353 88° East 495 570 41,000  Level Denver Center
Fri 07:27:48 AM 42.0139 -104.4586 90° East 498 573 41,000  Level Denver Center
Fri 07:28:48 AM 42.0114 -104.2767 91° East 508 585 41,000  Level Denver Center
Fri 07:29:48 AM 42.0083 -104.0664 91° East 508 585 41,000  Level Denver Center
Fri 07:30:49 AM 42.0044 -103.8869 92° East 505 581 41,000  Level Denver Center
Fri 07:31:49 AM 42.0017 -103.7092 91° East 500 575 41,000  Level Denver Center
Fri 07:32:49 AM 41.9967 -103.5075 92° East 487 560 41,000  Level Denver Center
Fri 07:33:49 AM 41.9933 -103.3333 91° East 488 562 41,000  Level Denver Center
Fri 07:34:49 AM 41.9886 -103.1589 92° East 489 563 41,000  Level Denver Center
Fri 07:35:50 AM 41.9847 -102.9822 92° East 492 566 41,000  Level Denver Center
Fri 07:36:50 AM 41.9811 -102.7783 91° East 489 563 41,000  Level Denver Center
Fri 07:37:50 AM 41.9764 -102.6033 92° East 491 565 41,000  Level Denver Center
Fri 07:38:50 AM 41.9144 -102.4669 121° Southeast 462 532 41,000  Level Denver Center
Fri 07:39:51 AM 41.7836 -102.4533 176° South 426 490 41,000  Level Denver Center
Fri 07:40:51 AM 41.6742 -102.4564 181° South 424 488 41,000  Level Denver Center
Fri 07:41:51 AM 41.5644 -102.4589 181° South 415 478 41,000  Level Denver Center
Fri 07:42:51 AM 41.4364 -102.4631 181° South 413 475 41,000  Level Denver Center
Fri 07:43:52 AM 41.3244 -102.4647 181° South 417 480 41,000  Level Denver Center
Fri 07:44:52 AM 41.2125 -102.4689 182° South 421 484 41,000  Level Denver Center
Fri 07:45:52 AM 41.0833 -102.4722 181° South 417 480 41,000  Level Denver Center
Fri 07:46:52 AM 40.9744 -102.4756 181° South 412 474 41,000  Level Denver Center
Fri 07:47:53 AM 40.8606 -102.4775 181° South 423 487 41,000  Level Denver Center
Fri 07:48:53 AM 40.7508 -102.4789 181° South 417 480 41,000  Level Denver Center
Fri 07:49:53 AM 40.6225 -102.4836 182° South 412 474 41,000  Level Denver Center
Fri 07:50:53 AM 40.5594 -102.5878 231° Southwest 406 467 41,000  Level Denver Center
Fri 07:51:54 AM 40.5969 -102.7256 290° West 446 513 41,000  Level Denver Center
Fri 07:52:54 AM 40.6464 -102.8750 294° West 448 516 41,000  Level Denver Center
Fri 07:53:54 AM 40.6928 -103.0231 292° West 441 507 41,000  Level Denver Center
Fri 07:54:55 AM 40.7500 -103.1992 293° West 438 504 41,000  Level Denver Center
Fri 07:55:55 AM 40.7967 -103.3486 292° West 441 507 41,000  Level Denver Center
Fri 07:56:55 AM 40.8431 -103.4950 293° West 437 503 41,000  Level Denver Center
Fri 07:57:56 AM 40.8886 -103.6414 292° West 433 498 41,000  Level Denver Center
Fri 07:58:56 AM 40.9342 -103.7839 293° West 424 488 41,000  Level Denver Center
Fri 07:59:56 AM 40.9778 -103.9219 293° West 412 474 41,000  Level Denver Center
Fri 08:00:57 AM 40.9803 -104.0656 271° West 409 471 41,000  Level Denver Center
Fri 08:01:57 AM 40.8742 -104.0981 193° South 421 484 41,000  Level Denver Center
Fri 08:02:58 AM 40.7583 -104.0594 166° South 429 494 41,000  Level Denver Center
Fri 08:03:58 AM 40.6394 -104.0200 166° South 439 505 41,000  Level Denver Center
Fri 08:04:58 AM 40.5214 -103.9794 165° South 439 505 41,000  Level Denver Center
Fri 08:05:59 AM 40.4042 -103.9406 166° South 434 499 41,000  Level Denver Center
Fri 08:06:59 AM 40.2906 -103.9028 166° South 423 487 41,000  Level Denver Center
Fri 08:07:59 AM 40.1744 -103.8642 166° South 428 493 41,000  Level Denver Center
Fri 08:09:00 AM 40.0581 -103.8253 166° South 431 496 41,000  Level Denver Center
Fri 08:10:00 AM 39.9433 -103.7881 166° South 424 488 41,000  Level Denver Center
Fri 08:11:01 AM 39.8339 -103.7269 157° South 429 494 41,000  Level Denver Center
Fri 08:12:01 AM 39.7408 -103.6181 138° Southeast 445 512 41,000  Level Denver Center
Fri 08:13:02 AM 39.6658 -103.4775 125° Southeast 471 542 41,000  Level Denver Center
Fri 08:14:02 AM 39.5931 -103.3414 125° Southeast 464 534 41,000  Level Denver Center
Fri 08:15:03 AM 39.5169 -103.2036 126° Southeast 466 536 41,000  Level Denver Center
Fri 08:16:03 AM 39.4417 -103.0669 125° Southeast 467 537 41,000  Level Denver Center
Fri 08:17:04 AM 39.3689 -102.9339 125° Southeast 457 526 41,000  Level Denver Center
Fri 08:18:05 AM 39.2933 -102.7994 126° Southeast 462 532 41,000  Level Denver Center
Fri 08:19:05 AM 39.2103 -102.6503 126° Southeast 467 537 41,000  Level Denver Center
Fri 08:20:06 AM 39.1386 -102.5175 125° Southeast 470 541 41,000  Level Denver Center
Fri 08:21:07 AM 39.0186 -102.4700 163° South 438 504 41,000  Level Denver Center
Fri 08:22:07 AM 38.9514 -102.5786 232° Southwest 417 480 41,000  Level Denver Center
Fri 08:23:08 AM 38.9028 -102.7053 244° Southwest 414 476 41,000  Level Denver Center
Fri 08:24:09 AM 38.8553 -102.8247 243° Southwest 410 472 41,000  Level Denver Center
Fri 08:25:10 AM 38.7922 -102.9844 243° Southwest 417 480 41,000  Level Denver Center
Fri 08:26:10 AM 38.7381 -103.1169 242° Southwest 419 482 41,000  Level Denver Center
Fri 08:27:11 AM 38.6839 -103.2497 242° Southwest 419 482 41,000  Level Denver Center
Fri 08:28:12 AM 38.6311 -103.3814 243° Southwest 418 481 41,000  Level Denver Center
Fri 08:29:13 AM 38.5789 -103.5156 244° Southwest 412 474 41,000  Level Denver Center
Fri 08:30:14 AM 38.5178 -103.6306 236° Southwest 418 481 41,000  Level Denver Center
Fri 08:31:14 AM 38.4103 -103.6100 171° South 433 498 41,000  Level Denver Center
Fri 08:32:15 AM 38.3203 -103.4672 129° Southeast 459 528 41,000  Level Denver Center
Fri 08:33:16 AM 38.2336 -103.3561 135° Southeast 459 528 41,000  Level Denver Center
Fri 08:34:17 AM 38.1478 -103.2456 135° Southeast 458 527 41,000  Level Denver Center
Fri 08:35:18 AM 38.0572 -103.1308 135° Southeast 460 529 41,000  Level Denver Center
Fri 08:36:19 AM 37.9589 -103.0064 135° Southeast 460 529 41,000  Level Denver Center
Fri 08:37:20 AM 37.8722 -102.8989 136° Southeast 455 524 41,000  Level Denver Center
Fri 08:38:21 AM 37.7700 -102.7708 135° Southeast 460 529 41,000  Level Denver Center
Fri 08:38:45 AM 37.7408 -102.7339 135° Southeast 462 532 41,000  Level Denver Center
Fri 08:39:46 AM 37.6519 -102.6233 135° Southeast 467 537 41,000  Level Denver Center
Fri 08:40:47 AM 37.5494 -102.4950 135° Southeast 464 534 41,000  Level Denver Center
Fri 08:41:48 AM 37.4450 -102.4256 152° Southeast 462 532 41,000  Level Denver Center
Fri 08:42:49 AM 37.3717 -102.5125 223° Southwest 416 479 41,000  Level Denver Center
Fri 08:43:50 AM 37.3847 -102.6772 276° West 424 488 41,000  Level Denver Center
Fri 08:44:51 AM 37.4006 -102.8206 278° West 430 495 41,000  Level Denver Center
Fri 08:45:52 AM 37.4200 -102.9836 279° West 425 489 41,000  Level Denver Center
Fri 08:46:53 AM 37.4369 -103.1242 279° West 425 489 41,000  Level Denver Center
Fri 08:48:06 AM 37.4586 -103.3125 278° West 426 490 41,000  Level Denver Center
Fri 08:49:07 AM 37.4756 -103.4544 279° West 427 491 41,000  Level Denver Center
Fri 08:50:08 AM 37.4892 -103.5711 278° West 425 489 41,000  Level Denver Center
Fri 08:51:09 AM 37.4853 -103.7547 269° West 422 486 41,000  Level Denver Center
Fri 08:52:10 AM 37.3814 -103.7939 197° South 430 495 41,000  Level Denver Center
Fri 08:53:11 AM 37.2642 -103.7808 175° South 439 505 41,000  Level Denver Center
Fri 08:54:12 AM 37.1306 -103.7814 180° South 428 493 41,000  Level Denver Center
Fri 08:55:01 AM 37.0347 -103.7800 179° South 430 495 41,000  Level Albuquerque Center
Fri 08:56:01 AM 36.9192 -103.7800 180° South 432 497 41,000  Level Albuquerque Center
Fri 08:57:02 AM 36.8031 -103.7803 180° South 434 499 41,000  Level Albuquerque Center
Fri 08:58:02 AM 36.6678 -103.7794 180° South 434 499 41,000  Level Albuquerque Center
Fri 08:59:03 AM 36.5650 -103.7794 180° South 430 495 41,000  Level Albuquerque Center
Fri 09:00:04 AM 36.4250 -103.7811 181° South 428 493 41,000  Level Albuquerque Center
Fri 09:01:05 AM 36.3039 -103.7808 180° South 430 495 41,000  Level Albuquerque Center
Fri 09:02:06 AM 36.1819 -103.7792 179° South 433 498 41,000  Level Albuquerque Center
Fri 09:03:06 AM 36.0622 -103.7775 179° South 427 491 41,000  Level Albuquerque Center
Fri 09:04:07 AM 35.9628 -103.7956 188° South 431 496 41,000  Level Albuquerque Center
Fri 09:05:08 AM 35.8572 -103.8597 206° Southwest 423 487 41,000  Level Albuquerque Center
Fri 09:06:08 AM 35.7458 -103.9544 215° Southwest 415 478 41,000  Level Albuquerque Center
Fri 09:07:09 AM 35.6486 -104.0364 214° Southwest 418 481 41,000  Level Albuquerque Center
Fri 09:08:10 AM 35.5525 -104.1175 214° Southwest 418 481 41,000  Level Albuquerque Center
Fri 09:09:11 AM 35.4558 -104.1994 215° Southwest 419 482 41,000  Level Albuquerque Center
Fri 09:10:11 AM 35.3594 -104.2814 215° Southwest 421 484 41,000  Level Albuquerque Center
Fri 09:11:12 AM 35.2739 -104.3494 213° Southwest 421 484 41,000  Level Albuquerque Center
Fri 09:12:13 AM 35.1769 -104.4281 214° Southwest 418 481 41,000  Level Albuquerque Center
Fri 09:13:14 AM 35.0697 -104.5183 215° Southwest 419 482 41,000  Level Albuquerque Center
Fri 09:14:15 AM 34.9708 -104.5964 213° Southwest 421 484 41,000  Level Albuquerque Center
Fri 09:15:15 AM 34.8744 -104.6758 214° Southwest 416 479 41,000  Level Albuquerque Center
Fri 09:16:16 AM 34.7767 -104.7567 214° Southwest 419 482 41,000  Level Albuquerque Center
Fri 09:17:17 AM 34.6756 -104.8278 210° Southwest 417 480 41,000  Level Albuquerque Center
Fri 09:18:18 AM 34.5739 -104.8986 210° Southwest 416 479 41,000  Level Albuquerque Center
Fri 09:19:19 AM 34.4736 -104.9708 211° Southwest 417 480 41,000  Level Albuquerque Center
Fri 09:20:20 AM 34.4672 -105.1075 267° West 432 497 41,000  Level Albuquerque Center
Fri 09:21:21 AM 34.5842 -105.1567 341° North 465 535 41,000  Level Albuquerque Center
Fri 09:22:21 AM 34.7189 -105.1381 North 479 551 41,000  Level Albuquerque Center
Fri 09:23:22 AM 34.8556 -105.1225 North 485 558 41,000  Level Albuquerque Center
Fri 09:24:23 AM 34.9917 -105.1053 North 485 558 41,000  Level Albuquerque Center
Fri 09:25:24 AM 35.1283 -105.0878 North 486 559 41,000  Level Albuquerque Center
Fri 09:26:25 AM 35.2639 -105.0717 North 485 558 41,000  Level Albuquerque Center
Fri 09:27:26 AM 35.4008 -105.0558 North 485 558 41,000  Level Albuquerque Center
Fri 09:28:27 AM 35.5367 -105.0392 North 484 557 41,000  Level Albuquerque Center
Fri 09:29:28 AM 35.6731 -105.0211 North 484 557 41,000  Level Albuquerque Center
Fri 09:30:29 AM 35.8111 -105.0044 North 489 563 41,000  Level Albuquerque Center
Fri 09:31:30 AM 35.9458 -105.0133 357° North 500 575 41,000  Level Albuquerque Center
Fri 09:32:31 AM 36.0008 -105.1431 298° West 453 521 41,000  Level Albuquerque Center
Fri 09:33:32 AM 36.0433 -105.2844 290° West 441 507 41,000  Level Albuquerque Center
Fri 09:34:33 AM 36.0986 -105.4222 296° West 443 510 41,000  Level Albuquerque Center
Fri 09:35:34 AM 36.1572 -105.5697 296° West 445 512 41,000  Level Albuquerque Center
Fri 09:36:35 AM 36.2117 -105.7042 297° West 441 507 41,000  Level Albuquerque Center
Fri 09:37:36 AM 36.2675 -105.8389 297° West 441 507 41,000  Level Albuquerque Center
Fri 09:38:37 AM 36.3219 -105.9764 296° West 445 512 41,000  Level Albuquerque Center
Fri 09:39:38 AM 36.3756 -106.1108 296° West 440 506 41,000  Level Albuquerque Center
Fri 09:40:39 AM 36.4311 -106.2511 296° West 438 504 41,000  Level Albuquerque Center
Fri 09:41:40 AM 36.5092 -106.3950 304° West 453 521 41,000  Level Albuquerque Center
Fri 09:42:42 AM 36.5986 -106.5017 316° Northwest 464 534 41,000  Level Albuquerque Center
Fri 09:43:20 AM 36.6583 -106.5703 317° Northwest 463 533 41,000  Level Denver Center
Fri 09:44:21 AM 36.7628 -106.6942 316° Northwest 464 534 41,000  Level Denver Center
Fri 09:45:23 AM 36.8550 -106.8014 317° Northwest 470 541 41,000  Level Denver Center
Fri 09:46:24 AM 36.9403 -106.9036 316° Northwest 453 521 41,000  Level Denver Center
Fri 09:47:25 AM 37.0447 -107.0269 317° Northwest 460 529 41,000  Level Denver Center
Fri 09:48:27 AM 37.1331 -107.1328 316° Northwest 462 532 41,000  Level Denver Center
Fri 09:49:28 AM 37.2344 -107.2550 316° Northwest 456 525 41,000  Level Denver Center
Fri 09:50:29 AM 37.3075 -107.3422 316° Northwest 454 522 41,000  Level Denver Center
Fri 09:51:31 AM 37.4050 -107.4706 314° West 451 519 41,000  Level Denver Center
Fri 09:52:32 AM 37.4656 -107.6219 297° West 435 501 41,000  Level Denver Center
Fri 09:53:33 AM 37.4867 -107.7628 281° West 432 497 41,000  Level Denver Center
Fri 09:54:35 AM 37.5050 -107.9200 278° West 409 471 41,000  Level Denver Center
Fri 09:55:36 AM 37.5203 -108.0594 278° West 418 481 41,000  Level Denver Center
Fri 09:56:38 AM 37.5372 -108.2003 279° West 424 488 41,000  Level Denver Center
Fri 09:57:39 AM 37.5542 -108.3653 277° West 427 491 41,000  Level Denver Center
Fri 09:58:40 AM 37.5694 -108.5044 278° West 424 488 41,000  Level Denver Center
Fri 09:59:42 AM 37.5867 -108.6647 278° West 417 480 41,000  Level Denver Center
Fri 10:00:43 AM 37.6039 -108.8042 279° West 418 481 41,000  Level Denver Center
Fri 10:01:45 AM 37.6350 -108.9619 284° West 417 480 41,000  Level Denver Center
Fri 10:02:46 AM 37.6603 -109.1003 283° West 422 486 41,000  Level Denver Center
Fri 10:03:48 AM 37.6858 -109.2364 283° West 420 483 41,000  Level Denver Center
Fri 10:04:49 AM 37.7142 -109.3986 282° West 423 487 41,000  Level Denver Center
Fri 10:05:51 AM 37.7392 -109.5344 283° West 417 480 41,000  Level Denver Center
Fri 10:06:52 AM 37.7678 -109.6931 283° West 416 479 41,000  Level Denver Center
Fri 10:07:53 AM 37.7928 -109.8339 283° West 427 491 41,000  Level Denver Center
Fri 10:08:55 AM 37.8203 -109.9756 284° West 431 496 41,000  Level Denver Center
Fri 10:09:56 AM 37.8886 -110.1253 300° West 442 509 41,000  Level Denver Center
Fri 10:10:58 AM 37.9814 -110.2250 320° Northwest 459 528 41,000  Level Denver Center
Fri 10:12:00 AM 38.0967 -110.3442 321° Northwest 462 532 41,000  Level Denver Center
Fri 10:13:01 AM 38.1914 -110.4442 320° Northwest 462 532 41,000  Level Denver Center
Fri 10:14:03 AM 38.2858 -110.5425 321° Northwest 459 528 41,000  Level Denver Center
Fri 10:15:05 AM 38.3958 -110.6600 320° Northwest 460 529 41,000  Level Denver Center
Fri 10:15:35 AM 38.4439 -110.7111 320° Northwest 460 529 41,000  Level Salt Center
Fri 10:16:37 AM 38.5386 -110.8117 320° Northwest 461 531 41,000  Level Salt Center
Fri 10:17:38 AM 38.6500 -110.9306 320° Northwest 464 534 41,000  Level Salt Center
Fri 10:18:40 AM 38.7431 -111.0306 320° Northwest 465 535 41,000  Level Salt Center
Fri 10:19:41 AM 38.8367 -111.1431 317° Northwest 464 534 41,000  Level Salt Center
Fri 10:20:43 AM 38.9286 -111.2464 319° Northwest 447 514 41,000  Level Salt Center
Fri 10:21:45 AM 39.0667 -111.2117 11° North 513 590 41,000  Level Salt Center
Fri 10:22:46 AM 39.1100 -111.0178 74° East 519 597 41,000  Level Salt Center
Fri 10:23:48 AM 39.1125 -110.8475 89° East 500 575 41,000  Level Salt Center
Fri 10:24:49 AM 39.0944 -110.6519 97° East 493 567 41,000  Level Salt Center
Fri 10:25:35 AM 39.0839 -110.5364 97° East 498 573 41,000  Level Denver Center
Fri 10:26:37 AM 39.0658 -110.3400 97° East 497 572 41,000  Level Denver Center
Fri 10:27:39 AM 39.0514 -110.1719 96° East 496 571 41,000  Level Denver Center
Fri 10:27:54 AM 39.0489 -110.1183 93° East 497 572 41,000  Level Salt Center
Fri 10:28:56 AM 39.0339 -109.9503 97° East 495 570 41,000  Level Salt Center
Fri 10:29:42 AM 39.0122 -109.8089 101° East 493 567 41,000  Level Denver Center
Fri 10:30:44 AM 38.9678 -109.6244 107° East 484 557 41,000  Level Denver Center
Fri 10:31:46 AM 38.9294 -109.4686 108° East 482 555 41,000  Level Denver Center
Fri 10:32:48 AM 38.8867 -109.2878 107° East 475 547 41,000  Level Denver Center
Fri 10:33:50 AM 38.8492 -109.1325 107° East 477 549 41,000  Level Denver Center
Fri 10:34:52 AM 38.8056 -108.9503 107° East 481 554 41,000  Level Denver Center
Fri 10:35:54 AM 38.7953 -108.7833 94° East 496 571 41,000  Level Denver Center
Fri 10:36:57 AM 38.8269 -108.5900 78° East 500 575 41,000  Level Denver Center
Fri 10:37:59 AM 38.8569 -108.4242 77° East 502 578 41,000  Level Denver Center
Fri 10:39:01 AM 38.8933 -108.2275 77° East 509 586 41,000  Level Denver Center
Fri 10:40:03 AM 38.9242 -108.0592 77° East 508 585 41,000  Level Denver Center
Fri 10:41:05 AM 38.9597 -107.8653 77° East 503 579 41,000  Level Denver Center
Fri 10:42:07 AM 38.9889 -107.7011 77° East 497 572 41,000  Level Denver Center
Fri 10:43:09 AM 39.0242 -107.5056 77° East 502 578 41,000  Level Denver Center
Fri 10:44:11 AM 39.1244 -107.4006 39° Northeast 507 583 41,000 -145 Level Denver Center
Fri 10:45:13 AM 39.2769 -107.4044 359° North 493 567 40,700 -387 Descending Denver Center
Fri 10:46:15 AM 39.4081 -107.4111 358° North 492 566 40,200 -339 Descending Denver Center
Fri 10:47:17 AM 39.5586 -107.4194 358° North 488 562 40,000 -97 Descending Denver Center
Fri 10:48:19 AM 39.6919 -107.4269 358° North 497 572 40,000  Level Denver Center
Fri 10:49:21 AM 39.8467 -107.4339 358° North 498 573 40,000  Level Denver Center
Fri 10:50:23 AM 39.9781 -107.4400 358° North 494 568 40,000  Level Denver Center
Fri 10:51:25 AM 40.1319 -107.4494 357° North 496 571 40,000  Level Denver Center
Fri 10:52:27 AM 40.2622 -107.4553 358° North 491 565 40,000  Level Denver Center
Fri 10:53:29 AM 40.4164 -107.4647 357° North 495 570 40,000  Level Denver Center
Fri 10:54:31 AM 40.5281 -107.3783 30° Northeast 511 588 40,000  Level Denver Center
Fri 10:55:33 AM 40.5450 -107.1867 83° East 498 573 40,000 -581 Level Denver Center
Fri 10:56:35 AM 40.5303 -107.0056 96° East 498 573 38,800 -1,694 Descending Denver Center
Fri 10:57:37 AM 40.5150 -106.8256 96° East 494 568 36,500 -2,323 Descending Denver Center
Fri 10:58:39 AM 40.5008 -106.6483 96° East 488 562 34,000 -2,371 Descending Denver Center
Fri 10:59:41 AM 40.4858 -106.4675 96° East 485 558 31,600 -2,419 Descending Denver Center
Fri 11:00:43 AM 40.4519 -106.2914 104° East 450 518 29,000 -2,177 Descending Denver Center
Fri 11:01:45 AM 40.4094 -106.1611 113° Southeast 411 473 27,100 -1,258 Descending Denver Center
Fri 11:02:47 AM 40.3783 -106.0067 105° East 399 459 26,400 -1,016 Descending Denver Center
Fri 11:03:49 AM 40.3736 -105.8567 92° East 409 471 25,000 -1,306 Descending Denver Center
Fri 11:04:51 AM 40.3683 -105.7133 93° East 400 460 23,700 -1,161 Descending Denver Center
Fri 11:05:53 AM 40.3642 -105.5731 92° East 389 448 22,600 -1,344 Descending Denver Center
Fri 11:06:56 AM 40.3342 -105.4189 104° East 380 437 20,900 -1,708 Descending Denver Center
Fri 11:08:10 AM 40.2633 -105.2889 126° Southeast 358 412 18,700 -1,897 Descending Denver Center
Fri 11:09:12 AM 40.2000 -105.1906 130° Southeast 353 406 16,600 -2,177 Descending Denver Center
Fri 11:10:14 AM 40.1394 -105.0972 130° Southeast 338 389 14,200 -2,468 Descending Denver Center
Fri 11:11:16 AM 40.0664 -105.0408 149° Southeast 294 338 11,500 -2,468 Descending Denver Center
Fri 11:12:18 AM 39.9925 -105.0339 176° South 270 311 9,100 -1,742 Descending Denver Center
Fri 11:13:20 AM 39.9186 -105.0272 176° South 248 285 7,900 -1,016 Descending Denver Center
Fri 11:14:22 AM 39.8717 -105.0322 185° South 182 209 7,000 -919 Descending Denver Center
Fri 11:15:24 AM 39.8892 -105.0797 296° West 143 165 6,000 -677 Descending Denver Center
Fri 11:16:26 AM 39.9092 -105.1175 305° West 126 145 5,600 -387 Descending Denver Center
Fri 11:18:00 AM 39.9088 -105.1172 16° North  Level Estimated
Fri 11:25:00 AM 39.9088 -105.1172 North  Level Estimated
Fri 11:26:00 AM 39.9088 -105.1172 North  Level Estimated
Fri 11:27:00 AM 39.9088 -105.1172 356° North  Level Estimated

Login

Don't have an account? Register now (free) for customized features, flight alerts, and more!